Time;durP1;ratioP1;P1;durP2;ratioP2;P2;SDS_P1;SDS_P2;PMS_P1;PMS_P2;Temp;Humidity;BMP_temperature;BMP_pressure;BME280_temperature;BME280_humidity;BME280_pressure;Samples;Min_cycle;Max_cycle;Signal;HPM_P1;HPM_P2
2022/03/16 00:00:12;;;;;;;9.40;8.40;;;11.70;66.40;;;14.78;50.08;102554.69;5034517;28;20194;-48
2022/03/16 00:02:43;;;;;;;12.13;8.80;;;11.70;66.50;;;14.77;49.94;102553.84;5034903;28;20301;-49
2022/03/16 00:05:11;;;;;;;13.57;9.10;;;11.60;66.60;;;14.77;50.20;102553.84;5033224;28;20546;-49
2022/03/16 00:07:39;;;;;;;8.93;7.30;;;11.60;66.70;;;14.76;50.60;102557.47;5033867;28;20214;-49
2022/03/16 00:10:10;;;;;;;10.83;7.53;;;11.60;66.90;;;14.75;50.07;102555.84;5033845;28;20194;-49
2022/03/16 00:12:40;;;;;;;9.47;7.97;;;11.60;66.90;;;14.76;50.38;102554.81;5033499;28;20194;-48
2022/03/16 00:15:08;;;;;;;8.67;7.33;;;11.60;66.80;;;14.76;50.25;102560.13;5032146;28;20205;-49
2022/03/16 00:17:35;;;;;;;9.70;8.27;;;11.60;66.80;;;14.75;50.17;102555.00;5032782;28;20226;-51
2022/03/16 00:20:04;;;;;;;9.17;7.80;;;11.60;66.80;;;14.75;50.48;102570.91;5033140;28;20615;-50
2022/03/16 00:22:31;;;;;;;10.40;7.93;;;11.70;66.80;;;14.74;50.25;102564.75;5024232;28;20306;-51
2022/03/16 00:24:59;;;;;;;10.07;8.13;;;11.70;66.70;;;14.72;50.40;102566.75;5013447;28;20203;-49
2022/03/16 00:27:27;;;;;;;9.47;8.50;;;11.70;66.60;;;14.71;50.41;102570.38;5013376;28;20210;-49
2022/03/16 00:29:54;;;;;;;8.13;6.93;;;11.70;66.70;;;14.71;50.38;102564.25;5013586;28;20258;-48
2022/03/16 00:32:22;;;;;;;10.37;8.10;;;11.70;66.70;;;14.72;50.48;102569.38;5012491;28;20190;-50
2022/03/16 00:34:49;;;;;;;11.00;8.30;;;11.70;66.80;;;14.74;50.54;102569.22;5013278;28;20322;-49
2022/03/16 00:37:16;;;;;;;11.80;8.87;;;11.70;66.90;;;14.75;50.72;102573.53;5012824;28;20218;-51
2022/03/16 00:39:44;;;;;;;11.80;9.07;;;11.70;67.70;;;14.74;50.43;102575.38;5014378;28;20199;-49
2022/03/16 00:42:11;;;;;;;11.50;8.23;;;11.70;67.00;;;14.73;50.51;102571.06;5013248;28;20215;-50
2022/03/16 00:44:40;;;;;;;10.37;8.57;;;11.70;66.80;;;14.72;50.29;102566.75;5013056;28;20278;-51
2022/03/16 00:47:08;;;;;;;12.37;8.30;;;11.70;66.80;;;14.71;50.18;102570.38;5012755;28;20215;-48
2022/03/16 00:49:35;;;;;;;12.83;8.30;;;11.60;66.50;;;14.68;50.49;102570.69;5013287;28;20192;-51
2022/03/16 00:52:04;;;;;;;11.90;8.43;;;11.60;66.50;;;14.66;50.19;102561.25;5015188;28;20191;-50
2022/03/16 00:54:31;;;;;;;11.33;8.50;;;11.60;66.40;;;14.61;50.33;102567.00;5017947;28;20195;-48
2022/03/16 00:56:59;;;;;;;10.97;8.10;;;11.60;66.50;;;14.56;50.38;102563.16;5041072;28;20210;-49
2022/03/16 00:59:27;;;;;;;11.23;9.27;;;11.50;66.40;;;14.52;50.31;102560.00;5039062;28;20202;-49
2022/03/16 01:01:56;;;;;;;13.73;9.60;;;11.50;66.50;;;14.47;50.68;102559.63;5037450;28;20221;-48
2022/03/16 01:04:24;;;;;;;12.40;8.80;;;11.40;66.60;;;14.41;50.59;102568.19;5037935;28;20218;-49
2022/03/16 01:06:53;;;;;;;11.07;9.13;;;11.40;66.80;;;14.38;50.64;102568.47;5037965;28;20252;-49
2022/03/16 01:09:20;;;;;;;9.33;7.80;;;11.30;66.90;;;14.35;50.82;102563.50;5037655;28;20197;-48
2022/03/16 01:11:48;;;;;;;11.10;8.63;;;11.30;67.10;;;14.33;50.86;102564.66;5030945;28;20187;-49
2022/03/16 01:14:15;;;;;;;10.57;8.57;;;11.20;67.10;;;14.26;50.86;102553.81;5016927;28;20210;-48
2022/03/16 01:16:43;;;;;;;11.73;8.97;;;11.20;67.10;;;14.20;50.94;102555.25;5016508;28;20321;-48
2022/03/16 01:19:15;;;;;;;11.10;8.80;;;11.20;67.40;;;14.14;51.06;102561.13;5017301;28;20199;-48
2022/03/16 01:21:44;;;;;;;10.53;9.23;;;11.10;67.50;;;14.09;51.30;102559.94;5017489;28;20261;-49
2022/03/16 01:24:11;;;;;;;12.43;9.53;;;11.00;67.50;;;14.03;51.34;102558.72;5017087;28;20270;-48
2022/03/16 01:26:39;;;;;;;9.40;7.93;;;11.00;67.70;;;13.99;51.50;102557.38;5016595;28;20219;-49
2022/03/16 01:29:06;;;;;;;13.07;9.13;;;11.00;67.80;;;13.95;51.56;102557.84;5025730;28;20253;-52
2022/03/16 01:31:34;;;;;;;11.17;9.40;;;10.90;67.80;;;13.91;51.68;102549.34;5036245;28;20723;-51
2022/03/16 01:34:02;;;;;;;11.43;9.10;;;10.90;67.90;;;13.86;51.77;102546.31;5035976;28;20191;-49
2022/03/16 01:36:30;;;;;;;14.70;10.77;;;10.80;68.10;;;13.82;51.77;102552.06;5035969;28;20217;-50
2022/03/16 01:38:58;;;;;;;14.60;10.67;;;10.80;68.30;;;13.77;51.72;102562.28;5035946;28;20220;-49
2022/03/16 01:41:25;;;;;;;11.30;9.80;;;10.80;68.80;;;13.70;52.40;102556.75;5034887;28;20234;-49
2022/03/16 01:43:53;;;;;;;12.83;10.07;;;10.70;68.60;;;13.67;52.58;102561.53;5036515;28;20285;-48
2022/03/16 01:46:21;;;;;;;11.60;10.00;;;10.70;69.10;;;13.63;52.62;102560.16;5019770;28;20203;-49
2022/03/16 01:48:51;;;;;;;13.10;9.97;;;10.70;69.10;;;13.60;52.63;102563.13;5016146;28;20188;-48
2022/03/16 01:51:20;;;;;;;13.00;10.57;;;10.60;69.10;;;13.57;52.53;102566.88;5016196;28;20199;-49
2022/03/16 01:53:49;;;;;;;14.53;11.47;;;10.60;69.00;;;13.52;52.68;102564.69;5016210;28;20284;-48
2022/03/16 01:56:18;;;;;;;13.77;9.80;;;10.60;69.20;;;13.50;52.92;102561.34;5015645;28;20642;-48
2022/03/16 01:58:45;;;;;;;15.23;11.53;;;10.50;69.20;;;13.47;52.99;102574.88;5015939;28;20191;-48
2022/03/16 02:01:14;;;;;;;14.30;10.13;;;10.50;69.30;;;13.46;52.86;102577.66;5020230;28;20190;-48
2022/03/16 02:03:42;;;;;;;13.17;10.97;;;10.50;69.40;;;13.44;53.15;102577.81;5034953;28;20195;-49
2022/03/16 02:06:10;;;;;;;13.80;10.83;;;10.50;69.80;;;13.44;53.35;102575.16;5035831;28;20190;-48
2022/03/16 02:08:38;;;;;;;14.07;11.73;;;10.50;70.00;;;13.43;53.15;102578.78;5035874;28;20265;-47
2022/03/16 02:11:06;;;;;;;14.50;11.43;;;10.50;69.90;;;13.43;53.29;102565.56;5035737;28;20191;-49
2022/03/16 02:13:36;;;;;;;16.33;12.17;;;10.40;69.90;;;13.42;53.26;102576.28;5035780;28;20186;-48
2022/03/16 02:16:04;;;;;;;16.50;11.93;;;10.40;70.00;;;13.39;53.27;102574.78;5035443;28;20208;-49
2022/03/16 02:18:32;;;;;;;18.63;12.57;;;10.40;69.90;;;13.36;53.37;102575.06;5026649;28;20717;-49
2022/03/16 02:21:05;;;;;;;15.00;10.83;;;10.40;69.90;;;13.33;53.43;102574.53;5018231;28;20191;-48
2022/03/16 02:23:34;;;;;;;16.00;12.17;;;10.40;70.00;;;13.29;53.32;102574.00;5020244;28;20219;-48
2022/03/16 02:26:01;;;;;;;18.80;13.13;;;10.30;70.00;;;13.23;53.64;102569.28;5018910;28;20202;-48
2022/03/16 02:28:28;;;;;;;17.10;12.47;;;10.30;70.20;;;13.19;53.86;102573.19;5018466;28;20706;-50
2022/03/16 02:30:56;;;;;;;15.73;12.03;;;10.30;70.30;;;13.16;53.87;102568.22;5018287;28;20206;-48
2022/03/16 02:33:23;;;;;;;18.50;13.23;;;10.30;70.30;;;13.11;54.09;102567.81;5020017;28;20708;-48
2022/03/16 02:35:51;;;;;;;16.13;12.63;;;10.20;70.40;;;13.08;54.02;102576.03;5045396;28;20549;-49
2022/03/16 02:38:18;;;;;;;19.23;13.57;;;10.20;70.40;;;13.04;54.13;102574.63;5046579;28;20584;-49
2022/03/16 02:40:48;;;;;;;19.60;13.87;;;10.10;70.50;;;13.01;54.03;102569.63;5049393;28;20246;-48
2022/03/16 02:43:15;;;;;;;19.00;14.00;;;10.10;70.80;;;12.98;54.24;102569.91;5043661;28;20306;-51
2022/03/16 02:45:43;;;;;;;19.70;14.33;;;10.10;70.80;;;12.96;54.12;102581.59;5044913;28;20273;-49
2022/03/16 02:48:11;;;;;;;16.03;12.40;;;10.00;70.80;;;12.93;54.07;102577.47;5035985;28;20221;-51
2022/03/16 02:50:38;;;;;;;15.93;12.90;;;10.00;70.80;;;12.89;54.02;102571.63;5025508;28;20196;-49
2022/03/16 02:53:05;;;;;;;19.47;14.77;;;9.90;72.10;;;12.86;54.35;102571.91;5024953;28;20195;-51
2022/03/16 02:55:54;;;;;;;17.67;14.00;;;9.90;72.30;;;12.82;54.71;102574.97;5025717;28;20223;-49
2022/03/16 02:58:21;;;;;;;16.63;13.20;;;9.90;72.50;;;12.78;54.30;102566.53;5026636;28;20222;-49
2022/03/16 03:00:48;;;;;;;22.20;14.60;;;9.90;72.30;;;12.76;54.62;102570.28;5014819;28;20194;-49
2022/03/16 03:03:17;;;;;;;19.07;14.77;;;9.80;72.40;;;12.73;54.78;102567.91;5031311;28;20218;-50
2022/03/16 03:05:44;;;;;;;19.53;14.40;;;9.80;72.90;;;12.68;54.91;102576.28;5034543;28;20194;-50
2022/03/16 03:08:12;;;;;;;17.97;14.63;;;9.80;73.00;;;12.66;55.01;102572.94;5034334;28;20210;-48
2022/03/16 03:10:39;;;;;;;18.27;13.60;;;9.70;72.90;;;12.64;55.22;102576.72;5035216;28;20186;-49
2022/03/16 03:13:08;;;;;;;18.07;13.70;;;9.70;73.10;;;12.62;54.77;102578.66;5035139;28;20187;-47
2022/03/16 03:15:35;;;;;;;19.90;14.50;;;9.70;73.20;;;12.59;55.05;102585.06;5034098;28;20195;-48
2022/03/16 03:18:02;;;;;;;18.10;14.27;;;9.60;73.30;;;12.57;55.56;102583.53;5034175;28;20223;-47
2022/03/16 03:20:30;;;;;;;20.20;14.43;;;9.60;73.50;;;12.55;55.41;102577.56;5035566;28;20190;-49
2022/03/16 03:22:57;;;;;;;20.70;15.07;;;9.60;73.80;;;12.53;55.61;102576.84;5034668;28;20207;-49
2022/03/16 03:25:24;;;;;;;19.23;15.10;;;9.60;73.90;;;12.50;55.79;102579.78;5034713;28;20194;-49
2022/03/16 03:27:52;;;;;;;18.70;14.47;;;9.60;73.90;;;12.48;55.73;102579.09;5034043;28;20685;-50
2022/03/16 03:30:20;;;;;;;18.40;14.50;;;9.60;74.70;;;12.47;55.35;102575.63;5033182;28;20205;-51
2022/03/16 03:32:47;;;;;;;20.30;13.87;;;9.50;73.80;;;12.44;56.00;102575.91;5034082;28;20190;-49
2022/03/16 03:35:15;;;;;;;18.47;14.03;;;9.50;74.00;;;12.45;55.45;102576.75;5034020;28;20190;-48
2022/03/16 03:37:42;;;;;;;18.63;14.13;;;9.60;74.10;;;12.42;55.70;102572.56;5033789;28;20210;-49
2022/03/16 03:40:10;;;;;;;21.23;14.50;;;9.50;74.20;;;12.39;55.92;102566.72;5034053;28;20241;-48
2022/03/16 03:42:38;;;;;;;16.30;13.40;;;9.50;74.60;;;12.37;55.86;102572.16;5033850;28;20213;-51
2022/03/16 03:45:07;;;;;;;21.33;14.87;;;9.50;74.20;;;12.36;55.69;102577.59;5033468;28;20535;-48
2022/03/16 03:47:36;;;;;;;18.83;14.73;;;9.50;74.30;;;12.35;55.68;102575.91;5034847;28;20215;-48
2022/03/16 03:50:04;;;;;;;19.53;14.23;;;9.40;74.30;;;12.34;55.96;102569.78;5035864;28;20201;-48
2022/03/16 03:52:31;;;;;;;17.93;13.63;;;9.40;74.30;;;12.34;55.64;102574.25;5035120;28;20197;-48
2022/03/16 03:54:58;;;;;;;21.60;14.87;;;9.40;74.30;;;12.33;55.98;102572.59;5037768;28;20585;-48
2022/03/16 03:57:26;;;;;;;18.97;14.23;;;9.40;74.10;;;12.31;55.83;102571.91;5033484;28;20667;-50
2022/03/16 03:59:53;;;;;;;18.97;13.60;;;9.40;74.10;;;12.29;55.80;102573.84;5035679;28;20208;-48
2022/03/16 04:02:20;;;;;;;19.00;13.90;;;9.30;74.00;;;12.26;55.52;102571.47;5021961;28;20226;-52
2022/03/16 04:04:49;;;;;;;18.30;14.33;;;9.30;74.00;;;12.23;55.71;102578.72;5023493;28;20263;-49
2022/03/16 04:07:16;;;;;;;20.60;15.47;;;9.30;74.10;;;12.19;56.06;102577.31;5025029;28;20211;-48
2022/03/16 04:09:43;;;;;;;19.00;14.60;;;9.30;74.20;;;12.16;55.93;102582.03;5019484;28;20192;-49
2022/03/16 04:12:11;;;;;;;25.23;16.03;;;9.20;74.30;;;12.13;55.83;102583.16;5029410;28;20250;-48
2022/03/16 04:14:38;;;;;;;23.70;15.37;;;9.20;74.50;;;12.12;56.36;102591.22;5035910;28;20198;-51
2022/03/16 04:17:05;;;;;;;20.23;14.60;;;9.20;74.60;;;12.11;56.07;102600.94;5032442;28;20225;-49
2022/03/16 04:19:33;;;;;;;22.33;15.13;;;9.20;74.50;;;12.09;55.91;102599.41;5033707;28;20187;-51
2022/03/16 04:22:02;;;;;;;19.20;14.73;;;9.20;74.30;;;12.06;55.82;102599.69;5033113;28;20198;-50
2022/03/16 04:24:29;;;;;;;19.90;15.20;;;9.10;74.20;;;12.04;56.29;102604.25;5033260;28;20221;-50
2022/03/16 04:26:57;;;;;;;19.90;14.57;;;9.10;74.60;;;12.02;56.00;102614.97;5034053;28;20740;-48
2022/03/16 04:29:24;;;;;;;21.13;14.90;;;9.10;74.60;;;12.02;55.98;102616.78;5034000;28;20194;-48
2022/03/16 04:31:51;;;;;;;20.07;15.07;;;9.10;74.80;;;12.00;56.40;102611.63;5033272;28;20222;-49
2022/03/16 04:34:19;;;;;;;22.30;15.63;;;9.10;74.90;;;11.98;56.16;102610.91;5032988;28;20183;-48
2022/03/16 04:36:47;;;;;;;17.13;13.90;;;9.10;74.90;;;11.97;56.05;102614.53;5032851;28;20217;-48
2022/03/16 04:39:16;;;;;;;22.77;16.83;;;9.00;74.60;;;11.95;55.83;102608.56;5030885;28;20206;-46
2022/03/16 04:41:44;;;;;;;20.47;14.93;;;9.00;74.40;;;11.93;55.70;102612.31;5013473;28;20274;-47
2022/03/16 04:44:11;;;;;;;20.00;14.97;;;9.00;74.30;;;11.90;55.87;102615.22;5013365;28;20708;-47
2022/03/16 04:46:39;;;;;;;19.10;14.57;;;8.90;74.30;;;11.87;55.78;102603.13;5013051;28;20545;-48
2022/03/16 04:49:07;;;;;;;22.13;15.90;;;8.90;74.40;;;11.85;56.12;102605.09;5013686;28;20275;-49
2022/03/16 04:51:34;;;;;;;21.23;16.10;;;8.90;74.90;;;11.83;56.15;102604.38;5013892;28;20202;-48
2022/03/16 04:54:01;;;;;;;22.13;15.70;;;8.80;74.80;;;11.81;56.58;102608.97;5022444;28;20201;-47
2022/03/16 04:56:30;;;;;;;20.40;15.93;;;8.80;74.90;;;11.80;56.50;102611.72;5032862;28;20655;-49
2022/03/16 04:58:57;;;;;;;20.57;16.30;;;8.80;75.20;;;11.81;56.52;102619.53;5033433;28;20197;-48
2022/03/16 05:01:24;;;;;;;20.37;14.73;;;8.80;75.50;;;11.82;56.28;102618.53;5034479;28;20649;-46
2022/03/16 05:03:51;;;;;;;23.57;16.27;;;8.80;75.30;;;11.83;56.24;102616.75;5034860;28;20217;-48
2022/03/16 05:06:20;;;;;;;25.00;16.83;;;8.80;75.60;;;11.85;56.82;102626.19;5033372;28;20667;-47
2022/03/16 05:08:47;;;;;;;20.27;14.40;;;8.80;75.80;;;11.86;56.69;102627.84;5016628;28;20222;-50
2022/03/16 05:11:15;;;;;;;23.37;17.47;;;8.80;75.60;;;11.87;57.14;102629.53;5013018;28;20210;-49
2022/03/16 05:13:44;;;;;;;20.13;16.40;;;8.90;76.30;;;11.90;56.59;102631.91;5013278;28;20192;-49
2022/03/16 05:16:11;;;;;;;20.83;15.83;;;8.90;76.00;;;11.91;56.67;102625.63;5012573;28;20196;-50
2022/03/16 05:18:40;;;;;;;22.07;15.97;;;8.90;76.10;;;11.94;57.00;102629.81;5013186;28;20195;-47
2022/03/16 05:21:08;;;;;;;21.13;15.77;;;9.00;76.10;;;11.95;56.83;102627.03;5013170;28;20208;-49
2022/03/16 05:23:35;;;;;;;19.63;15.00;;;9.00;75.80;;;11.96;57.04;102638.41;5012959;28;20670;-47
2022/03/16 05:26:04;;;;;;;19.17;14.77;;;9.00;75.60;;;11.95;56.57;102637.59;5013952;28;20194;-50
2022/03/16 05:28:31;;;;;;;22.37;15.60;;;9.00;75.40;;;11.94;56.36;102645.63;5014382;28;20187;-48
2022/03/16 05:31:00;;;;;;;20.57;15.27;;;9.00;75.30;;;11.93;56.63;102646.63;5014606;28;20195;-46
2022/03/16 05:33:27;;;;;;;22.17;16.10;;;9.00;75.50;;;11.93;56.55;102650.06;5014122;28;20191;-48
2022/03/16 05:35:54;;;;;;;23.80;15.70;;;9.00;75.20;;;11.91;56.67;102657.28;5015068;28;20191;-51
2022/03/16 05:38:22;;;;;;;19.87;14.57;;;9.00;75.30;;;11.91;56.38;102657.28;5015036;28;20219;-48
2022/03/16 05:40:49;;;;;;;21.77;15.07;;;8.90;75.20;;;11.91;56.60;102662.56;5019177;28;20203;-48
2022/03/16 05:43:16;;;;;;;18.77;14.60;;;8.90;75.20;;;11.91;56.59;102667.84;5017791;28;20211;-48
2022/03/16 05:45:43;;;;;;;21.03;15.57;;;8.90;75.30;;;11.91;56.29;102670.50;5018362;28;20202;-47
2022/03/16 05:48:12;;;;;;;23.67;16.33;;;8.90;75.20;;;11.92;56.58;102673.97;5018232;28;20277;-48
2022/03/16 05:50:44;;;;;;;25.30;18.37;;;8.90;75.50;;;11.92;56.75;102677.44;5033628;28;20290;-49
2022/03/16 05:53:13;;;;;;;23.70;16.13;;;8.90;75.70;;;11.93;56.38;102681.72;5038491;28;20265;-48
2022/03/16 05:55:40;;;;;;;25.50;17.63;;;8.90;75.60;;;11.95;56.76;102685.09;5038715;28;20201;-49
2022/03/16 05:58:08;;;;;;;23.37;15.37;;;9.00;76.00;;;11.99;56.70;102694.41;5038128;28;20237;-49
2022/03/16 06:00:37;;;;;;;21.80;15.17;;;9.00;76.00;;;12.02;56.79;102691.50;5038982;28;20270;-49
2022/03/16 06:03:05;;;;;;;21.40;15.03;;;9.00;75.90;;;12.06;56.63;102692.91;5035389;28;20262;-49
2022/03/16 06:05:34;;;;;;;20.27;14.67;;;9.00;75.70;;;12.09;56.22;102695.28;5018483;28;20195;-50
2022/03/16 06:08:02;;;;;;;20.67;15.50;;;9.00;75.60;;;12.10;56.32;102699.56;5018633;28;20230;-48
2022/03/16 06:10:29;;;;;;;18.57;13.83;;;9.10;75.60;;;12.11;56.16;102695.13;5019107;28;20217;-49
2022/03/16 06:13:01;;;;;;;19.23;14.73;;;9.10;75.30;;;12.11;56.02;102698.59;5019187;28;20197;-49
2022/03/16 06:15:31;;;;;;;18.63;14.40;;;9.10;75.20;;;12.10;56.29;102694.28;5018196;28;20197;-49
2022/03/16 06:17:59;;;;;;;20.37;14.93;;;9.10;75.10;;;12.12;55.54;102697.63;5017472;28;21034;-49
2022/03/16 06:20:30;;;;;;;22.30;16.37;;;9.10;75.30;;;12.11;56.25;102698.59;5018788;28;20187;-49
2022/03/16 06:22:58;;;;;;;21.20;16.27;;;9.10;75.30;;;12.12;56.06;102705.53;5017788;28;20215;-48
2022/03/16 06:25:26;;;;;;;20.50;15.90;;;9.10;75.20;;;12.14;56.02;102708.06;5017133;28;20239;-50
2022/03/16 06:27:54;;;;;;;22.60;15.27;;;9.10;75.20;;;12.16;56.07;102704.31;5016414;28;20215;-48
2022/03/16 06:30:21;;;;;;;23.67;15.70;;;9.10;75.20;;;12.19;56.18;102701.38;5017799;28;20661;-48
2022/03/16 06:32:49;;;;;;;19.10;14.93;;;9.10;75.10;;;12.20;55.62;102705.69;5018171;28;20205;-49
2022/03/16 06:35:16;;;;;;;20.17;15.37;;;9.10;75.10;;;12.24;55.65;102708.91;5017408;28;20291;-49
2022/03/16 06:37:45;;;;;;;24.63;19.97;;;9.10;75.00;;;12.28;55.63;102717.38;5017952;28;20260;-48
2022/03/16 06:40:15;;;;;;;26.07;19.50;;;9.20;75.40;;;12.33;56.05;102717.81;5018832;28;20191;-50
2022/03/16 06:42:47;;;;;;;21.07;15.20;;;9.20;75.50;;;12.35;55.73;102713.22;5017473;28;20661;-48
2022/03/16 06:45:16;;;;;;;21.20;16.33;;;9.20;75.40;;;12.42;55.82;102720.47;5017566;28;20203;-50
2022/03/16 06:47:43;;;;;;;22.90;17.30;;;9.30;75.50;;;12.44;55.46;102728.22;5020418;28;20207;-50
2022/03/16 06:50:12;;;;;;;23.47;16.37;;;9.30;75.30;;;12.47;55.89;102728.81;5037337;28;20229;-50
2022/03/16 06:52:40;;;;;;;21.07;15.83;;;9.30;75.20;;;12.47;55.78;102718.25;5036339;28;20184;-51
2022/03/16 06:55:09;;;;;;;17.73;14.53;;;9.40;75.20;;;12.50;55.82;102722.41;5035746;28;20202;-47
2022/03/16 06:57:37;;;;;;;19.90;14.30;;;9.40;75.20;;;12.52;55.51;102726.59;5035870;28;20245;-49
2022/03/16 07:00:09;;;;;;;22.67;16.30;;;9.40;75.00;;;12.54;55.38;102718.53;5025589;28;20199;-50
2022/03/16 07:02:54;;;;;;;21.63;15.67;;;9.40;75.10;;;12.53;55.57;102716.84;5018992;28;20530;-48
2022/03/16 07:05:27;;;;;;;21.70;15.43;;;9.50;75.20;;;12.58;55.56;102728.66;5019419;28;20187;-50
2022/03/16 07:07:56;;;;;;;19.70;14.37;;;9.50;75.00;;;12.61;55.34;102728.41;5017998;28;20209;-49
2022/03/16 07:10:24;;;;;;;18.97;15.07;;;9.50;75.00;;;12.67;55.46;102725.19;5019447;28;20234;-51
2022/03/16 07:12:53;;;;;;;19.77;15.07;;;9.50;74.90;;;12.73;55.39;102735.22;5022420;28;20186;-49
2022/03/16 07:15:21;;;;;;;20.63;15.33;;;9.60;75.00;;;12.77;55.17;102727.84;5037993;28;20198;-49
2022/03/16 07:17:48;;;;;;;18.30;15.10;;;9.60;74.80;;;12.80;54.93;102730.19;5038257;28;20692;-50
2022/03/16 07:20:16;;;;;;;19.13;15.33;;;9.60;74.50;;;12.83;55.17;102736.06;5038225;28;20546;-49
2022/03/16 07:22:44;;;;;;;19.60;14.13;;;9.70;74.50;;;12.87;54.57;102731.31;5038562;28;20191;-49
2022/03/16 07:25:21;;;;;;;19.03;14.73;;;9.70;74.60;;;12.93;54.79;102736.06;5037781;28;20541;-50
2022/03/16 07:27:49;;;;;;;18.53;14.10;;;9.70;74.40;;;12.97;54.78;102737.44;5026774;28;20301;-49
2022/03/16 07:30:19;;;;;;;21.47;14.23;;;9.80;74.30;;;13.00;54.76;102737.16;5018187;28;20222;-49
2022/03/16 07:32:46;;;;;;;19.20;14.37;;;9.80;74.20;;;13.04;54.72;102741.19;5018090;28;20191;-49
2022/03/16 07:35:14;;;;;;;24.90;15.30;;;9.90;74.10;;;13.06;54.55;102747.19;5018068;28;20191;-48
2022/03/16 07:37:42;;;;;;;19.80;13.70;;;9.90;74.00;;;13.05;54.75;102740.19;5017846;28;20229;-51
2022/03/16 07:40:11;;;;;;;14.97;12.17;;;10.00;72.70;;;13.05;54.67;102745.47;5017795;28;20665;-49
2022/03/16 07:42:43;;;;;;;18.93;13.20;;;10.10;72.50;;;13.06;54.63;102741.91;5019461;28;20195;-49
2022/03/16 07:45:10;;;;;;;20.67;14.23;;;10.10;72.30;;;13.10;54.48;102751.22;5019242;28;20246;-51
2022/03/16 07:47:40;;;;;;;18.40;13.47;;;10.20;72.10;;;13.16;54.60;102740.09;5018145;28;20211;-48
2022/03/16 07:50:09;;;;;;;18.33;13.07;;;10.20;72.00;;;13.31;54.41;102741.28;5018006;28;20286;-49
2022/03/16 07:52:40;;;;;;;17.57;13.23;;;10.30;72.00;;;13.47;54.10;102741.53;5018485;28;20189;-49
2022/03/16 07:55:10;;;;;;;19.10;13.93;;;10.40;71.90;;;13.61;53.85;102748.19;5019572;28;20199;-49
2022/03/16 07:57:39;;;;;;;18.20;12.40;;;10.50;71.80;;;13.78;53.87;102747.41;5018471;28;20219;-51
2022/03/16 08:00:13;;;;;;;15.37;12.43;;;10.60;71.80;;;13.92;53.03;102756.69;5019021;28;20195;-50
2022/03/16 08:02:45;;;;;;;17.23;13.53;;;10.70;71.00;;;14.02;53.33;102753.03;5019880;28;20198;-48
2022/03/16 08:05:14;;;;;;;18.83;12.87;;;10.90;71.00;;;14.11;52.49;102762.72;5019814;28;20198;-48
2022/03/16 08:07:42;;;;;;;22.33;14.90;;;10.90;70.40;;;14.15;52.38;102758.78;5020241;28;20211;-52
2022/03/16 08:10:10;;;;;;;17.87;12.27;;;11.00;70.00;;;14.21;51.98;102765.31;5032925;28;20218;-48
2022/03/16 08:12:37;;;;;;;14.87;11.77;;;11.10;69.30;;;14.23;51.64;102766.00;5038650;28;20191;-51
2022/03/16 08:15:06;;;;;;;17.97;13.10;;;11.20;68.70;;;14.28;51.81;102766.41;5038102;28;20186;-50
2022/03/16 08:17:36;;;;;;;18.23;13.40;;;11.30;68.70;;;14.29;51.43;102769.88;5040668;28;20269;-51
2022/03/16 08:20:06;;;;;;;18.27;14.03;;;11.40;68.10;;;14.30;51.16;102771.53;5027037;28;20225;-50
2022/03/16 08:22:36;;;;;;;19.40;14.27;;;11.40;67.80;;;14.33;50.94;102774.75;5043512;28;20253;-52
2022/03/16 08:25:07;;;;;;;15.77;12.93;;;11.40;67.20;;;14.40;50.96;102775.84;5037030;28;20218;-49
2022/03/16 08:27:37;;;;;;;12.73;11.37;;;11.50;67.10;;;14.52;51.10;102766.69;5033671;28;20670;-48
2022/03/16 08:30:06;;;;;;;25.33;17.63;;;11.60;67.70;;;14.74;50.63;102774.19;5034137;28;20193;-47
2022/03/16 08:32:34;;;;;;;15.63;12.43;;;11.60;67.30;;;15.01;50.39;102773.25;5032973;28;20197;-50
2022/03/16 08:35:01;;;;;;;21.53;17.73;;;11.70;67.10;;;15.20;50.05;102774.91;5033888;28;21601;-48
2022/03/16 08:37:30;;;;;;;17.87;14.00;;;11.90;67.50;;;15.38;49.67;102767.75;5032098;28;20645;-52
2022/03/16 08:39:57;;;;;;;21.07;15.40;;;12.00;67.40;;;15.43;48.47;102768.09;5034577;28;20202;-51
2022/03/16 08:42:25;;;;;;;21.80;14.63;;;12.10;66.10;;;15.43;48.47;102768.94;5031199;28;20202;-49
2022/03/16 08:44:53;;;;;;;18.47;13.67;;;12.30;65.10;;;15.37;48.36;102758.13;5033199;28;20228;-48
2022/03/16 08:47:21;;;;;;;18.50;13.50;;;12.30;64.20;;;15.35;48.57;102760.94;5034241;28;20233;-48
2022/03/16 08:49:51;;;;;;;21.73;15.93;;;12.30;64.20;;;15.41;48.47;102760.28;5033463;28;20531;-52
2022/03/16 08:52:19;;;;;;;18.03;15.17;;;12.40;64.70;;;15.45;48.64;102744.94;5034231;28;20210;-48
2022/03/16 08:54:50;;;;;;;22.43;16.10;;;12.40;64.60;;;15.46;48.79;102746.59;5033062;28;20602;-50
2022/03/16 08:57:20;;;;;;;19.50;15.50;;;12.50;64.90;;;15.50;48.71;102739.97;5028853;28;20629;-49
2022/03/16 08:59:48;;;;;;;22.77;17.10;;;12.50;64.70;;;15.54;48.59;102733.38;5028434;28;21867;-48
2022/03/16 09:02:16;;;;;;;22.48;16.20;;;12.50;65.30;;;15.82;47.76;102732.19;5029271;28;20439;-49
2022/03/16 09:04:44;;;;;;;19.40;15.50;;;12.50;64.70;;;15.79;47.80;102735.16;5031359;28;20222;-52
2022/03/16 09:07:12;;;;;;;21.87;15.63;;;12.60;64.60;;;15.87;47.87;102737.00;5032752;28;20222;-49
2022/03/16 09:09:40;;;;;;;21.77;15.13;;;12.70;64.40;;;15.97;47.87;102735.91;5031848;28;21027;-52
2022/03/16 09:12:11;;;;;;;20.42;16.38;;;12.80;64.50;;;16.34;47.10;102734.66;5032557;28;21006;-48
2022/03/16 09:14:39;;;;;;;18.17;14.83;;;12.80;64.60;;;16.34;47.57;102732.84;5035428;28;20191;-49
2022/03/16 09:17:10;;;;;;;20.93;15.27;;;12.90;64.30;;;16.41;46.97;102740.97;5033372;28;20229;-52
2022/03/16 09:19:38;;;;;;;20.50;15.50;;;13.10;63.80;;;16.47;47.11;102748.31;5037875;28;20205;-50
2022/03/16 09:22:05;;;;;;;21.50;15.20;;;13.10;63.50;;;16.59;46.61;102739.06;5031488;28;20337;-50
2022/03/16 09:24:33;;;;;;;19.50;15.00;;;13.20;63.40;;;16.66;46.40;102743.53;5039335;28;20285;-52
2022/03/16 09:27:01;;;;;;;30.47;19.90;;;13.30;62.90;;;16.78;46.58;102746.72;5037313;28;20307;-49
2022/03/16 09:29:30;;;;;;;24.53;15.77;;;13.40;62.90;;;16.88;46.01;102747.38;5039070;28;20195;-52
2022/03/16 09:32:07;;;;;;;20.73;15.00;;;13.50;62.50;;;16.95;46.20;102737.72;5034442;28;20238;-51
2022/03/16 09:34:35;;;;;;;19.57;14.60;;;13.60;62.20;;;17.04;45.70;102742.06;5023650;28;20202;-51
2022/03/16 09:37:04;;;;;;;18.47;14.50;;;13.70;61.90;;;17.13;45.52;102741.06;5025188;28;20211;-51
2022/03/16 09:39:34;;;;;;;18.77;14.47;;;13.80;61.80;;;17.16;45.04;102748.72;5032063;28;20221;-51
2022/03/16 09:42:03;;;;;;;20.00;14.37;;;13.90;60.50;;;17.18;45.10;102738.72;5031227;28;20233;-49
2022/03/16 09:44:32;;;;;;;21.80;15.20;;;13.90;60.40;;;17.24;44.72;102743.38;5034902;28;20754;-51
2022/03/16 09:47:03;;;;;;;21.90;16.00;;;14.00;59.90;;;17.37;44.59;102741.03;5035993;28;20201;-50
2022/03/16 09:49:31;;;;;;;19.60;15.47;;;14.10;59.90;;;17.65;44.01;102745.97;5046600;28;20208;-49
2022/03/16 09:51:59;;;;;;;15.43;13.30;;;14.20;59.30;;;18.23;43.44;102751.72;5027368;28;20199;-51
2022/03/16 09:54:27;;;;;;;18.17;13.90;;;14.50;60.20;;;19.28;42.70;102754.41;5036809;28;20268;-50
2022/03/16 09:56:55;;;;;;;15.93;13.03;;;14.90;60.70;;;20.83;41.34;102757.63;5026617;28;20283;-50
2022/03/16 09:59:22;;;;;;;18.43;14.83;;;15.60;61.90;;;22.11;38.15;102743.66;5026184;28;20265;-49
2022/03/16 10:01:59;;;;;;;19.43;15.70;;;16.40;58.70;;;23.18;35.62;102747.09;5023753;28;20221;-49
2022/03/16 10:04:31;;;;;;;19.10;14.93;;;17.30;54.70;;;23.98;33.26;102748.59;5035686;28;20248;-50
2022/03/16 10:07:00;;;;;;;22.67;15.17;;;18.10;52.50;;;24.54;32.11;102748.72;5033806;28;20238;-51